Time;durP1;ratioP1;P1;durP2;ratioP2;P2;SDS_P1;SDS_P2;PMS_P1;PMS_P2;Temp;Humidity;BMP_temperature;BMP_pressure;BME280_temperature;BME280_humidity;BME280_pressure;Samples;Min_cycle;Max_cycle;Signal;HPM_P1;HPM_P2
2021/08/26 00:00:09;;;;;;;14.20;9.43;;;;;;;12.02;76.75;99465.13;1775997;80;25657;-58
2021/08/26 00:08:07;;;;;;;13.62;8.58;;;;;;;12.03;76.54;99461.85;1776158;80;27525;-59
2021/08/26 00:10:34;;;;;;;14.55;9.55;;;;;;;12.03;76.73;99457.78;1776079;80;25636;-59
2021/08/26 00:13:00;;;;;;;14.45;9.18;;;;;;;12.03;76.79;99453.72;1775897;80;25711;-59
2021/08/26 00:15:26;;;;;;;14.68;10.10;;;;;;;12.02;76.79;99447.52;1776123;80;25771;-59
2021/08/26 00:17:53;;;;;;;15.00;9.25;;;;;;;12.02;76.73;99446.16;1776172;80;25783;-59
2021/08/26 00:20:19;;;;;;;11.88;9.38;;;;;;;12.01;76.59;99437.80;1776098;80;26805;-59
2021/08/26 00:22:47;;;;;;;17.40;9.95;;;;;;;12.03;76.62;99436.10;1776045;80;26404;-59
2021/08/26 00:25:13;;;;;;;14.83;10.25;;;;;;;12.04;76.59;99429.56;1776171;80;25734;-59
2021/08/26 00:27:39;;;;;;;17.82;9.83;;;;;;;12.04;76.74;99430.92;1775855;80;26337;-59
2021/08/26 00:30:07;;;;;;;15.38;9.78;;;;;;;12.04;76.96;99428.20;1776191;80;25709;-58
2021/08/26 00:32:34;;;;;;;14.15;9.58;;;;;;;12.05;76.75;99427.06;1779210;80;27439;-59
2021/08/26 00:35:00;;;;;;;15.88;10.43;;;;;;;12.02;76.75;99425.83;1758418;80;26425;-59
2021/08/26 00:37:26;;;;;;;13.68;9.33;;;;;;;12.02;76.71;99419.06;1785210;80;25703;-58
2021/08/26 00:39:53;;;;;;;15.13;9.65;;;;;;;12.02;76.75;99412.28;1785119;80;25744;-59
2021/08/26 00:42:19;;;;;;;15.05;10.03;;;;;;;12.01;76.92;99409.91;1785235;80;25681;-59
2021/08/26 00:44:45;;;;;;;15.55;10.48;;;;;;;12.00;76.94;99406.39;1785093;80;27455;-58
2021/08/26 00:47:12;;;;;;;13.30;9.10;;;;;;;11.99;76.99;99404.83;1785136;80;25799;-59
2021/08/26 00:49:39;;;;;;;17.45;10.28;;;;;;;11.97;76.91;99392.19;1785220;80;25725;-58
2021/08/26 00:52:11;;;;;;;14.93;9.78;;;;;;;11.99;77.01;99389.14;1784993;80;25663;-58
2021/08/26 00:54:38;;;;;;;15.08;10.13;;;;;;;11.99;76.96;99385.08;1785234;80;26412;-59
2021/08/26 00:57:05;;;;;;;14.93;10.05;;;;;;;11.98;76.97;99384.27;1785250;80;27322;-58
2021/08/26 00:59:33;;;;;;;14.38;9.85;;;;;;;11.99;77.01;99380.44;1785050;80;25783;-59
2021/08/26 01:02:11;;;;;;;15.35;9.78;;;;;;;11.97;77.02;99379.98;1785325;80;25826;-59
2021/08/26 01:04:48;;;;;;;17.05;10.20;;;;;;;11.96;77.12;99379.18;1731247;82;26165;-59
2021/08/26 01:07:31;;;;;;;16.70;9.75;;;;;;;11.96;77.09;99379.75;1731560;82;25767;-58
2021/08/26 01:10:09;;;;;;;15.48;9.28;;;;;;;11.96;77.12;99375.69;1731518;82;27337;-58
2021/08/26 01:12:39;;;;;;;14.58;9.75;;;;;;;11.96;77.47;99370.27;1731309;82;26481;-59
2021/08/26 01:15:07;;;;;;;16.23;9.30;;;;;;;11.96;77.23;99375.11;1731378;82;25866;-59
2021/08/26 01:17:34;;;;;;;15.85;9.25;;;;;;;11.98;77.31;99369.93;1731654;82;26608;-59
2021/08/26 01:20:05;;;;;;;21.52;9.68;;;;;;;11.99;77.12;99367.45;1731356;82;25657;-59
2021/08/26 01:22:32;;;;;;;15.78;9.00;;;;;;;12.02;77.15;99364.04;1731367;82;27322;-57
2021/08/26 01:25:09;;;;;;;16.02;9.55;;;;;;;12.01;77.14;99359.20;1731396;82;26332;-58
2021/08/26 01:27:52;;;;;;;14.13;9.08;;;;;;;12.03;77.13;99359.64;1731366;82;25830;-59
2021/08/26 01:30:23;;;;;;;16.67;9.98;;;;;;;12.04;77.15;99360.45;1731449;82;26517;-59
2021/08/26 01:32:54;;;;;;;15.65;8.98;;;;;;;12.05;77.03;99355.23;1727982;82;25911;-59
2021/08/26 01:35:22;;;;;;;18.07;9.43;;;;;;;12.06;77.03;99358.96;1773298;80;27294;-59
2021/08/26 01:37:51;;;;;;;14.78;9.50;;;;;;;12.07;77.10;99357.84;1773226;80;26378;-59
2021/08/26 01:40:17;;;;;;;12.05;7.80;;;;;;;12.09;77.13;99355.58;1773879;80;25650;-59
2021/08/26 01:42:45;;;;;;;15.03;9.08;;;;;;;12.11;77.14;99348.45;1790005;78;25706;-59
2021/08/26 01:45:11;;;;;;;14.98;9.53;;;;;;;12.11;77.09;99357.95;1823935;78;25963;-59
2021/08/26 01:47:39;;;;;;;17.42;9.08;;;;;;;12.12;77.13;99342.70;1823893;78;28122;-59
2021/08/26 01:50:07;;;;;;;17.60;9.48;;;;;;;12.11;77.05;99344.39;1757344;78;25726;-59
2021/08/26 01:52:33;;;;;;;13.15;8.50;;;;;;;12.13;77.19;99347.55;1823839;78;25675;-59
2021/08/26 01:55:05;;;;;;;22.73;9.15;;;;;;;12.12;77.12;99339.17;1823854;78;26107;-59
2021/08/26 01:57:35;;;;;;;14.15;8.58;;;;;;;12.11;77.24;99336.27;1823602;78;25678;-59
2021/08/26 02:00:09;;;;;;;18.75;8.98;;;;;;;12.11;77.22;99338.39;1824005;78;28687;-59
2021/08/26 02:02:35;;;;;;;15.80;8.68;;;;;;;12.12;77.25;99337.83;1823706;78;25751;-59
2021/08/26 02:05:01;;;;;;;13.58;8.75;;;;;;;12.14;77.32;99336.94;1823713;78;25610;-59
2021/08/26 02:07:28;;;;;;;15.65;9.45;;;;;;;12.13;77.23;99335.34;1823669;78;27310;-59
2021/08/26 02:09:54;;;;;;;14.53;8.85;;;;;;;12.13;77.36;99329.92;1823830;78;25761;-59
2021/08/26 02:12:20;;;;;;;15.58;9.38;;;;;;;12.12;77.44;99335.92;1823626;78;27264;-59
2021/08/26 02:14:46;;;;;;;15.15;9.15;;;;;;;12.13;77.50;99332.06;1823663;78;25675;-59
2021/08/26 02:17:13;;;;;;;17.65;10.18;;;;;;;12.12;77.70;99325.63;1823798;78;25791;-59
2021/08/26 02:19:39;;;;;;;14.75;9.30;;;;;;;12.13;77.69;99328.57;1823456;78;25678;-59
2021/08/26 02:22:06;;;;;;;15.28;9.55;;;;;;;12.10;77.78;99323.25;1823731;78;25783;-59
2021/08/26 02:24:33;;;;;;;16.02;9.58;;;;;;;12.09;77.76;99313.56;1823877;78;27259;-59
2021/08/26 02:27:00;;;;;;;17.98;9.78;;;;;;;12.08;78.57;99311.97;1823403;78;25724;-59
2021/08/26 02:29:26;;;;;;;15.88;8.95;;;;;;;12.06;78.47;99303.97;1823814;78;25771;-58
2021/08/26 02:31:52;;;;;;;13.62;8.40;;;;;;;12.05;78.48;99303.73;1823688;78;26050;-59
2021/08/26 02:34:19;;;;;;;17.30;8.73;;;;;;;12.04;78.50;99302.95;1823593;77;25728;-59
2021/08/26 02:36:45;;;;;;;14.00;8.90;;;;;;;12.03;78.84;99295.16;1823706;78;27280;-59
2021/08/26 02:39:11;;;;;;;14.38;8.43;;;;;;;12.01;79.00;99300.92;1823805;78;25620;-59
2021/08/26 02:41:39;;;;;;;15.68;8.43;;;;;;;11.97;79.39;99305.47;1823489;78;25680;-60
2021/08/26 02:44:05;;;;;;;13.10;8.93;;;;;;;11.92;79.36;99299.70;1823849;78;25665;-58
2021/08/26 02:46:33;;;;;;;13.35;8.08;;;;;;;11.91;79.59;99293.27;1823744;78;25698;-59
2021/08/26 02:48:59;;;;;;;14.68;8.68;;;;;;;11.91;79.84;99298.12;1823565;78;27291;-59
2021/08/26 02:51:26;;;;;;;15.08;8.05;;;;;;;11.89;79.73;99294.94;1823652;78;26107;-58
2021/08/26 02:53:52;;;;;;;15.78;7.80;;;;;;;11.90;80.14;99295.72;1823856;78;25848;-60
2021/08/26 02:56:19;;;;;;;16.62;8.78;;;;;;;11.87;80.21;99298.56;1823584;78;26403;-59
2021/08/26 02:58:45;;;;;;;16.65;8.45;;;;;;;11.85;80.44;99296.77;1823729;78;25586;-58
2021/08/26 03:01:11;;;;;;;16.25;8.33;;;;;;;11.84;80.57;99295.75;1823622;78;29563;-59
2021/08/26 03:03:37;;;;;;;15.88;8.43;;;;;;;11.82;80.72;99295.30;1823379;78;25732;-59
2021/08/26 03:06:04;;;;;;;14.80;8.80;;;;;;;11.81;80.96;99290.42;1824009;78;25971;-59
2021/08/26 03:08:32;;;;;;;19.45;8.50;;;;;;;11.78;81.30;99289.75;1823832;78;25762;-59
2021/08/26 03:10:59;;;;;;;16.20;8.08;;;;;;;11.77;81.56;99284.13;1823781;78;26377;-59
2021/08/26 03:13:26;;;;;;;18.55;10.88;;;;;;;11.76;81.55;99282.54;1823953;78;27298;-58
2021/08/26 03:15:52;;;;;;;14.07;8.83;;;;;;;11.76;81.76;99287.41;1823753;78;25742;-58
2021/08/26 03:18:18;;;;;;;16.20;9.25;;;;;;;11.74;81.87;99287.52;1823777;78;25862;-59
2021/08/26 03:20:45;;;;;;;18.90;9.68;;;;;;;11.73;81.99;99279.15;1823736;78;25772;-58
2021/08/26 03:23:12;;;;;;;16.05;9.63;;;;;;;11.69;82.26;99273.62;1823872;78;25730;-58
2021/08/26 03:25:39;;;;;;;18.32;9.93;;;;;;;11.69;82.40;99278.27;1823681;78;27319;-59
2021/08/26 03:28:05;;;;;;;17.80;9.23;;;;;;;11.68;82.40;99274.78;1823848;78;26552;-60
2021/08/26 03:30:33;;;;;;;15.00;8.88;;;;;;;11.67;82.52;99274.54;1823997;78;25798;-59
2021/08/26 03:32:59;;;;;;;16.82;9.40;;;;;;;11.67;83.38;99271.05;1823631;77;25714;-59
2021/08/26 03:35:26;;;;;;;16.67;10.18;;;;;;;11.67;82.95;99265.06;1824125;78;25885;-59
2021/08/26 03:37:52;;;;;;;17.92;9.93;;;;;;;11.67;83.45;99265.63;1823775;78;27359;-59
2021/08/26 03:40:20;;;;;;;15.28;9.80;;;;;;;11.66;83.31;99264.05;1823629;78;25695;-59
2021/08/26 03:42:46;;;;;;;19.98;9.85;;;;;;;11.67;83.44;99267.77;1823638;78;26248;-58
2021/08/26 03:45:12;;;;;;;17.30;9.65;;;;;;;11.67;83.36;99266.98;1803279;78;25760;-58
2021/08/26 03:47:38;;;;;;;16.93;9.13;;;;;;;11.65;83.40;99268.68;1823623;78;26378;-58
2021/08/26 03:50:06;;;;;;;18.77;9.20;;;;;;;11.67;83.79;99261.57;1823929;78;26805;-59
2021/08/26 03:52:32;;;;;;;21.17;9.75;;;;;;;11.66;83.84;99268.89;1803390;78;26359;-59
2021/08/26 03:54:59;;;;;;;22.15;10.78;;;;;;;11.65;83.97;99260.55;1823642;78;25769;-58
2021/08/26 03:57:25;;;;;;;17.55;9.38;;;;;;;11.63;84.21;99264.72;1823787;78;26417;-59
2021/08/26 03:59:52;;;;;;;15.30;9.58;;;;;;;11.62;84.70;99266.64;1823918;78;25919;-59
2021/08/26 04:02:19;;;;;;;16.77;10.35;;;;;;;11.61;84.71;99260.99;1823633;78;27336;-59
2021/08/26 04:04:45;;;;;;;21.20;10.20;;;;;;;11.58;84.37;99251.64;1823733;78;25655;-59
2021/08/26 04:07:12;;;;;;;20.30;10.32;;;;;;;11.59;84.50;99255.14;1823771;78;25785;-59
2021/08/26 04:09:38;;;;;;;24.92;9.83;;;;;;;11.58;85.03;99254.93;1823512;78;26271;-58
2021/08/26 04:12:06;;;;;;;17.10;9.28;;;;;;;11.57;84.97;99256.05;1823939;78;25786;-58
2021/08/26 04:14:32;;;;;;;16.85;9.43;;;;;;;11.57;85.19;99251.98;1823666;78;27357;-59
2021/08/26 04:16:58;;;;;;;15.40;10.23;;;;;;;11.58;85.08;99257.06;1823581;78;25653;-59
2021/08/26 04:19:25;;;;;;;19.75;10.30;;;;;;;11.58;85.41;99254.35;1823842;78;25671;-59
2021/08/26 04:21:51;;;;;;;20.05;10.40;;;;;;;11.58;85.72;99254.35;1823580;78;25617;-59
2021/08/26 04:24:17;;;;;;;19.62;10.13;;;;;;;11.56;85.63;99253.91;1823804;78;25671;-60
2021/08/26 04:26:44;;;;;;;18.60;10.85;;;;;;;11.57;86.20;99255.47;1823189;78;27304;-60
2021/08/26 04:29:10;;;;;;;15.58;10.05;;;;;;;11.55;86.02;99255.03;1823588;78;27107;-61
2021/08/26 04:31:37;;;;;;;18.20;10.88;;;;;;;11.55;86.14;99255.60;1823783;78;25839;-59
2021/08/26 04:34:04;;;;;;;15.90;9.83;;;;;;;11.54;86.30;99245.89;1824821;77;25682;-60
2021/08/26 04:36:30;;;;;;;20.80;10.32;;;;;;;11.53;86.95;99242.40;1826802;78;25723;-60
2021/08/26 04:38:56;;;;;;;19.23;11.28;;;;;;;11.55;86.70;99244.77;1826922;78;28002;-57
2021/08/26 04:41:22;;;;;;;16.15;10.45;;;;;;;11.55;87.07;99240.13;1826677;78;25749;-57
2021/08/26 04:43:49;;;;;;;18.23;10.88;;;;;;;11.55;86.80;99240.13;1826975;78;26436;-57
2021/08/26 04:46:15;;;;;;;16.27;10.55;;;;;;;11.56;87.14;99228.73;1826973;78;26340;-57
2021/08/26 04:48:41;;;;;;;16.80;10.70;;;;;;;11.56;87.03;99233.59;1808124;78;25648;-57
2021/08/26 04:51:08;;;;;;;20.17;10.68;;;;;;;11.56;87.12;99236.31;1827037;78;27996;-57
2021/08/26 04:53:34;;;;;;;18.57;10.48;;;;;;;11.57;87.30;99233.03;1826893;78;26346;-57
2021/08/26 04:56:01;;;;;;;20.72;10.28;;;;;;;11.56;87.67;99230.08;1826723;78;25700;-58
2021/08/26 04:58:27;;;;;;;17.87;10.75;;;;;;;11.57;87.61;99235.16;1827020;78;25679;-58
2021/08/26 05:00:53;;;;;;;18.45;10.53;;;;;;;11.57;87.79;99231.09;1826876;78;25527;-58
2021/08/26 05:03:19;;;;;;;18.30;11.65;;;;;;;11.58;87.85;99227.84;1826709;78;27274;-58
2021/08/26 05:05:46;;;;;;;18.45;11.00;;;;;;;11.59;88.05;99224.80;1826834;78;25714;-58
2021/08/26 05:08:12;;;;;;;19.55;10.78;;;;;;;11.59;87.95;99235.62;1826746;78;25692;-58
2021/08/26 05:10:39;;;;;;;18.85;11.38;;;;;;;11.59;88.28;99219.38;1825963;78;27863;-58
2021/08/26 05:13:08;;;;;;;18.25;11.70;;;;;;;11.61;88.11;99215.52;1826797;78;26357;-58
2021/08/26 05:15:39;;;;;;;16.77;10.20;;;;;;;11.63;88.39;99223.55;1826802;78;27292;-58
2021/08/26 05:18:08;;;;;;;17.70;11.00;;;;;;;11.64;88.50;99227.03;1826390;78;25764;-58
2021/08/26 05:20:34;;;;;;;18.03;10.97;;;;;;;11.65;88.69;99220.50;1826973;78;25923;-58
2021/08/26 05:23:00;;;;;;;18.70;11.20;;;;;;;11.65;88.55;99225.92;1826766;78;25833;-58
2021/08/26 05:25:27;;;;;;;20.10;12.10;;;;;;;11.67;88.66;99218.23;1826615;78;26340;-58
2021/08/26 05:27:53;;;;;;;19.00;10.58;;;;;;;11.67;88.98;99227.14;1826806;78;27364;-58
2021/08/26 05:30:20;;;;;;;18.02;11.48;;;;;;;11.69;89.06;99225.44;1826744;78;25770;-58
2021/08/26 05:32:46;;;;;;;19.67;12.58;;;;;;;11.67;88.85;99219.02;1826589;78;25711;-58
2021/08/26 05:35:13;;;;;;;17.77;11.45;;;;;;;11.68;89.00;99219.25;1826648;77;27724;-58
2021/08/26 05:37:42;;;;;;;19.90;12.58;;;;;;;11.68;89.41;99221.95;1826970;78;25634;-59
2021/08/26 05:40:10;;;;;;;24.87;12.60;;;;;;;11.69;89.07;99216.74;1826765;78;27736;-59
2021/08/26 05:42:36;;;;;;;20.50;11.97;;;;;;;11.70;89.10;99218.33;1826759;78;25684;-59
2021/08/26 05:45:04;;;;;;;20.70;12.18;;;;;;;11.73;89.60;99211.42;1826867;78;25712;-59
2021/08/26 05:47:31;;;;;;;20.97;12.55;;;;;;;11.74;89.37;99212.44;1826680;78;25683;-59
2021/08/26 05:49:57;;;;;;;18.73;11.50;;;;;;;11.75;89.61;99211.90;1826880;78;25711;-58
2021/08/26 05:52:23;;;;;;;19.23;12.25;;;;;;;11.75;89.47;99215.38;1826832;78;27308;-59
2021/08/26 05:54:50;;;;;;;17.60;11.55;;;;;;;11.76;89.37;99216.97;1826508;78;25800;-59
2021/08/26 05:57:16;;;;;;;19.52;12.80;;;;;;;11.77;89.64;99209.63;1826883;78;25704;-59
2021/08/26 05:59:43;;;;;;;20.23;12.07;;;;;;;11.80;89.61;99211.66;1826793;78;25706;-59
2021/08/26 06:02:09;;;;;;;19.48;12.55;;;;;;;11.81;89.64;99215.92;1826674;78;25690;-59
2021/08/26 06:04:35;;;;;;;20.45;12.35;;;;;;;11.85;89.62;99218.19;1826809;78;27317;-59
2021/08/26 06:07:04;;;;;;;17.90;12.53;;;;;;;11.88;90.02;99220.19;1826752;78;25665;-59
2021/08/26 06:09:31;;;;;;;20.23;12.07;;;;;;;11.91;90.21;99218.18;1826755;78;25824;-59
2021/08/26 06:12:01;;;;;;;17.55;12.25;;;;;;;11.94;89.92;99222.14;1826742;78;25731;-58
2021/08/26 06:14:27;;;;;;;21.07;12.28;;;;;;;11.94;89.91;99223.49;1826750;78;25727;-59
2021/08/26 06:16:53;;;;;;;18.50;11.65;;;;;;;12.00;90.09;99232.16;1826557;78;27320;-59
2021/08/26 06:19:20;;;;;;;17.25;10.78;;;;;;;12.01;90.11;99226.98;1826704;78;25621;-59
2021/08/26 06:21:47;;;;;;;18.75;11.68;;;;;;;12.02;90.01;99231.24;1826636;78;25672;-59
2021/08/26 06:24:13;;;;;;;14.38;10.95;;;;;;;12.05;90.01;99231.91;1833328;77;26352;-59
2021/08/26 06:26:42;;;;;;;18.95;11.63;;;;;;;12.06;90.26;99237.57;1858241;77;25737;-59
2021/08/26 06:29:08;;;;;;;17.85;10.98;;;;;;;12.05;90.62;99232.70;1858722;77;27576;-59
2021/08/26 06:31:35;;;;;;;18.67;11.63;;;;;;;12.04;90.17;99225.72;1853195;77;25366;-59
2021/08/26 06:34:02;;;;;;;15.50;10.88;;;;;;;12.04;90.48;99228.42;1842771;77;25748;-60
2021/08/26 06:36:28;;;;;;;16.70;11.38;;;;;;;12.08;90.34;99231.23;1836796;76;25918;-60
2021/08/26 06:38:55;;;;;;;21.20;11.73;;;;;;;12.06;90.38;99228.08;1833850;77;25705;-59
2021/08/26 06:41:21;;;;;;;15.55;10.93;;;;;;;12.10;90.66;99231.09;1836654;77;27385;-60
2021/08/26 06:43:47;;;;;;;23.18;11.63;;;;;;;12.12;90.78;99231.56;1833454;77;25732;-60
2021/08/26 06:46:13;;;;;;;18.32;10.53;;;;;;;12.15;90.74;99228.14;1834475;77;25684;-60
2021/08/26 06:48:40;;;;;;;18.07;11.03;;;;;;;12.20;90.90;99227.69;1834814;76;25731;-60
2021/08/26 06:51:06;;;;;;;17.77;12.13;;;;;;;12.23;90.82;99233.78;1832716;77;25597;-59
2021/08/26 06:53:33;;;;;;;17.00;11.50;;;;;;;12.26;90.98;99233.88;1829492;78;27268;-59
2021/08/26 06:55:59;;;;;;;18.10;11.10;;;;;;;12.29;90.96;99229.67;1829703;77;25758;-59
2021/08/26 06:58:25;;;;;;;15.78;10.32;;;;;;;12.33;91.04;99230.56;1829599;77;25746;-58
2021/08/26 07:00:53;;;;;;;17.62;10.78;;;;;;;12.36;91.11;99226.36;1829372;77;25787;-58
2021/08/26 07:03:19;;;;;;;16.45;10.10;;;;;;;12.40;91.05;99227.27;1829759;78;25719;-61
2021/08/26 07:05:45;;;;;;;15.72;9.90;;;;;;;12.44;91.08;99223.48;1813452;78;27309;-59
2021/08/26 07:08:12;;;;;;;18.62;11.57;;;;;;;12.46;90.98;99225.86;1813219;78;25708;-60
2021/08/26 07:10:38;;;;;;;15.45;10.35;;;;;;;12.47;90.94;99228.22;1829455;78;25905;-60
2021/08/26 07:13:26;;;;;;;13.03;9.65;;;;;;;12.48;91.03;99234.42;1829734;78;26302;-60
2021/08/26 07:15:52;;;;;;;15.85;9.30;;;;;;;12.49;91.05;99229.23;1804061;79;25605;-60
2021/08/26 07:18:20;;;;;;;17.02;9.28;;;;;;;12.52;91.13;99235.33;1804140;79;27052;-60
2021/08/26 07:20:46;;;;;;;14.47;9.75;;;;;;;12.51;90.98;99241.33;1803903;79;25784;-60
2021/08/26 07:23:13;;;;;;;14.87;10.38;;;;;;;12.54;90.98;99235.76;1803957;79;25673;-60
2021/08/26 07:25:40;;;;;;;14.30;9.25;;;;;;;12.55;91.04;99237.34;1803998;79;25676;-59
2021/08/26 07:28:06;;;;;;;16.27;9.65;;;;;;;12.59;91.14;99236.08;1804226;79;25770;-59
2021/08/26 07:30:33;;;;;;;12.37;9.03;;;;;;;12.59;91.20;99236.86;1801043;79;27329;-59
2021/08/26 07:33:00;;;;;;;15.15;8.85;;;;;;;12.63;91.34;99236.95;1790450;79;25656;-59
2021/08/26 07:35:26;;;;;;;16.20;9.70;;;;;;;12.63;91.30;99235.59;1789457;80;26568;-59
2021/08/26 07:37:53;;;;;;;15.20;9.98;;;;;;;12.64;91.28;99239.89;1789238;80;25685;-59
2021/08/26 07:40:19;;;;;;;12.40;8.70;;;;;;;12.65;91.33;99240.09;1789601;80;26518;-59
2021/08/26 07:42:46;;;;;;;15.23;10.05;;;;;;;12.68;91.61;99238.86;1789999;79;28013;-59
2021/08/26 07:45:12;;;;;;;14.75;10.13;;;;;;;12.68;91.69;99240.22;1795316;79;25759;-59
2021/08/26 07:47:39;;;;;;;15.40;9.40;;;;;;;12.76;91.67;99239.03;1796977;79;25957;-60
2021/08/26 07:50:07;;;;;;;15.30;10.63;;;;;;;12.78;91.71;99232.69;1791225;79;25791;-59
2021/08/26 07:52:34;;;;;;;13.55;9.53;;;;;;;12.80;91.59;99233.12;1803081;78;25733;-60
2021/08/26 07:55:02;;;;;;;13.80;10.03;;;;;;;12.82;91.78;99231.64;1821626;78;27355;-60
2021/08/26 07:57:30;;;;;;;15.80;9.98;;;;;;;12.87;92.07;99232.73;1786874;79;25751;-60
2021/08/26 07:59:57;;;;;;;16.25;9.75;;;;;;;12.95;92.21;99230.97;1795702;79;26297;-60
2021/08/26 08:02:24;;;;;;;14.47;9.65;;;;;;;13.05;92.64;99233.73;1795918;79;25779;-60
2021/08/26 08:04:51;;;;;;;16.23;10.40;;;;;;;13.16;93.10;99225.29;1795832;79;25835;-60
2021/08/26 08:08:06;;;;;;;15.23;10.38;;;;;;;13.26;92.84;99232.90;1797318;78;27325;-60
2021/08/26 08:11:00;;;;;;;15.25;8.90;;;;;;;13.34;92.82;99227.08;1828330;77;26166;-60
2021/08/26 08:13:39;;;;;;;13.13;9.23;;;;;;;13.38;92.13;99228.52;1828088;77;25805;-60
2021/08/26 08:16:05;;;;;;;14.60;9.05;;;;;;;13.40;91.92;99236.54;1825034;78;25746;-59
2021/08/26 08:18:32;;;;;;;15.28;9.63;;;;;;;13.41;92.10;99231.30;1825131;78;25683;-60
2021/08/26 08:21:02;;;;;;;15.38;9.48;;;;;;;13.45;92.23;99230.05;1825208;78;26949;-67
2021/08/26 08:23:28;;;;;;;12.90;8.93;;;;;;;13.51;92.29;99238.13;1824875;78;27125;-67
2021/08/26 08:25:55;;;;;;;10.32;7.83;;;;;;;13.57;92.15;99239.44;1825326;78;25611;-66
2021/08/26 08:28:22;;;;;;;12.55;8.28;;;;;;;13.61;92.22;99236.22;1841797;77;26601;-67
2021/08/26 08:30:48;;;;;;;16.50;11.10;;;;;;;13.69;92.26;99236.36;1844538;77;25675;-66
2021/08/26 08:33:16;;;;;;;11.18;8.48;;;;;;;13.77;92.52;99234.02;1852499;77;27113;-66
2021/08/26 08:35:43;;;;;;;13.20;8.55;;;;;;;13.86;92.64;99235.17;1856704;77;25750;-68
2021/08/26 08:38:09;;;;;;;13.43;8.50;;;;;;;13.88;92.09;99239.12;1856742;77;26391;-66
2021/08/26 08:40:35;;;;;;;12.93;8.58;;;;;;;13.87;91.43;99237.53;1852961;77;25823;-66
2021/08/26 08:43:03;;;;;;;11.35;8.10;;;;;;;13.83;91.47;99240.18;1850766;77;25718;-66
2021/08/26 08:45:30;;;;;;;12.75;8.55;;;;;;;13.81;91.16;99241.70;1856465;77;27374;-67
2021/08/26 08:47:58;;;;;;;10.32;7.55;;;;;;;13.81;91.21;99239.75;1859092;77;25626;-67
2021/08/26 08:50:26;;;;;;;11.03;8.05;;;;;;;13.82;91.27;99238.63;1859200;77;25734;-67
2021/08/26 08:52:54;;;;;;;9.85;7.78;;;;;;;13.87;91.33;99248.41;1859018;77;25727;-66
2021/08/26 08:55:20;;;;;;;12.40;8.50;;;;;;;13.86;91.09;99243.33;1848359;77;25820;-66
2021/08/26 08:57:47;;;;;;;12.03;8.93;;;;;;;13.90;91.45;99246.92;1850010;77;29206;-66
2021/08/26 09:00:17;;;;;;;11.93;8.95;;;;;;;13.89;91.43;99248.83;1851462;77;25655;-66
2021/08/26 09:02:44;;;;;;;11.40;8.70;;;;;;;13.90;91.38;99248.28;1850184;77;25753;-66
2021/08/26 09:05:11;;;;;;;13.05;8.53;;;;;;;13.92;91.75;99248.70;1850443;77;25774;-66
2021/08/26 09:07:38;;;;;;;12.50;8.83;;;;;;;13.96;91.65;99251.72;1842770;77;26384;-66
2021/08/26 09:10:08;;;;;;;11.25;7.80;;;;;;;13.99;92.06;99242.05;1848919;77;27300;-66
2021/08/26 09:12:44;;;;;;;12.07;7.22;;;;;;;14.06;91.91;99248.98;1846723;77;25751;-67
2021/08/26 09:15:19;;;;;;;10.23;7.72;;;;;;;14.07;91.58;99247.85;1856809;76;26039;-66
2021/08/26 09:17:47;;;;;;;9.43;7.55;;;;;;;14.14;91.70;99247.21;1856043;76;25785;-66
2021/08/26 09:20:19;;;;;;;13.38;8.38;;;;;;;14.14;91.28;99243.12;1853714;76;25751;-67
2021/08/26 09:22:48;;;;;;;10.60;8.65;;;;;;;14.17;91.59;99250.58;1856887;76;27425;-68
2021/08/26 09:25:24;;;;;;;10.25;7.28;;;;;;;14.22;91.55;99243.49;1853177;77;25840;-68
2021/08/26 09:27:51;;;;;;;10.90;8.85;;;;;;;14.23;91.40;99241.55;1853648;76;25730;-60
2021/08/26 09:30:19;;;;;;;10.10;8.15;;;;;;;14.24;91.19;99235.75;1857011;76;27750;-61
2021/08/26 09:33:01;;;;;;;14.07;8.43;;;;;;;14.25;91.24;99237.34;1791046;79;25874;-60
2021/08/26 09:35:33;;;;;;;12.28;8.68;;;;;;;14.25;91.29;99231.09;1807982;78;27476;-60
2021/08/26 09:38:05;;;;;;;11.12;8.23;;;;;;;14.31;91.33;99239.97;1792913;79;25714;-60
2021/08/26 09:40:42;;;;;;;10.78;7.95;;;;;;;14.29;90.75;99239.55;1792566;80;25795;-60
2021/08/26 09:43:08;;;;;;;10.28;8.13;;;;;;;14.30;90.75;99236.23;1808005;78;25775;-60
2021/08/26 09:45:38;;;;;;;10.23;7.80;;;;;;;14.32;90.81;99235.30;1800439;79;25787;-60
2021/08/26 09:48:16;;;;;;;13.90;8.80;;;;;;;14.32;90.94;99229.86;1826862;78;27369;-60
2021/08/26 09:50:52;;;;;;;9.43;7.45;;;;;;;14.37;91.06;99236.40;1837905;78;25678;-60
2021/08/26 09:53:23;;;;;;;10.10;8.03;;;;;;;14.39;90.90;99231.37;1834746;78;26334;-60
2021/08/26 09:56:03;;;;;;;9.38;7.08;;;;;;;14.43;91.05;99230.08;1826064;78;25735;-60
2021/08/26 09:58:33;;;;;;;9.83;8.08;;;;;;;14.48;91.17;99232.51;1800359;79;25713;-60
2021/08/26 10:01:14;;;;;;;9.70;8.08;;;;;;;14.58;91.80;99227.83;1826788;78;27298;-60
2021/08/26 10:03:41;;;;;;;8.33;7.30;;;;;;;14.76;91.97;99233.59;1800131;79;25796;-60
2021/08/26 10:06:14;;;;;;;9.93;7.03;;;;;;;15.02;92.34;99231.52;1814289;79;25880;-60
2021/08/26 10:08:43;;;;;;;8.65;7.67;;;;;;;15.28;92.64;99228.61;1826712;78;26158;-60
2021/08/26 10:11:11;;;;;;;8.90;7.33;;;;;;;15.53;92.90;99226.25;1800014;79;25784;-60
2021/08/26 10:13:39;;;;;;;9.15;6.33;;;;;;;15.67;90.93;99231.89;1823351;78;28203;-60
2021/08/26 10:16:06;;;;;;;7.78;6.33;;;;;;;15.67;89.74;99225.07;1832149;78;25673;-61
2021/08/26 10:18:35;;;;;;;6.78;5.92;;;;;;;15.68;89.33;99221.77;1827610;78;25744;-59
2021/08/26 10:21:06;;;;;;;10.85;6.47;;;;;;;15.71;88.88;99221.61;1814591;78;26339;-59
2021/08/26 10:23:31;;;;;;;6.95;6.25;;;;;;;15.74;89.13;99223.61;1783828;80;25739;-60
2021/08/26 10:26:02;;;;;;;7.00;5.67;;;;;;;15.80;88.68;99225.67;1784024;80;27331;-59
2021/08/26 10:28:27;;;;;;;;;;;;;;;15.82;88.54;99223.36;1785949;80;25739;-62
2021/08/26 10:30:54;;;;;;;8.75;6.30;;;;;;;15.83;87.89;99225.50;1784137;80;26111;-61
2021/08/26 10:33:28;;;;;;;5.95;5.30;;;;;;;15.83;87.81;99218.13;1783487;80;25768;-61
2021/08/26 10:36:00;;;;;;;6.90;5.47;;;;;;;15.86;88.14;99217.36;1783271;80;25755;-60
2021/08/26 10:38:32;;;;;;;6.00;5.40;;;;;;;15.94;88.14;99225.06;1783983;80;27837;-60
2021/08/26 10:41:21;;;;;;;6.47;5.85;;;;;;;15.96;87.46;99224.11;1783860;80;25928;-60
2021/08/26 10:44:00;;;;;;;7.92;6.72;;;;;;;15.99;86.90;99232.14;1783922;80;25927;-60
2021/08/26 10:46:52;;;;;;;7.65;6.25;;;;;;;16.02;87.00;99230.81;1783695;80;26811;-60
2021/08/26 10:49:20;;;;;;;6.22;5.50;;;;;;;16.14;87.22;99235.24;1783860;80;26302;-60
2021/08/26 10:51:51;;;;;;;8.00;6.60;;;;;;;16.31;86.72;99228.97;1783581;80;27533;-60
2021/08/26 10:54:33;;;;;;;10.05;5.70;;;;;;;16.55;87.19;99239.38;1783896;80;25756;-60
2021/08/26 10:57:29;;;;;;;7.55;6.72;;;;;;;16.82;87.90;99233.77;1784104;80;25800;-60
2021/08/26 10:59:56;;;;;;;6.72;5.33;;;;;;;17.28;88.82;99234.77;1802554;77;25826;-60
2021/08/26 11:02:42;;;;;;;6.83;5.20;;;;;;;17.49;86.46;99242.91;1774295;80;25674;-60
2021/08/26 11:05:39;;;;;;;8.20;5.60;;;;;;;17.53;84.79;99247.21;1799471;79;27423;-60
2021/08/26 11:08:32;;;;;;;6.58;5.05;;;;;;;17.47;82.36;99243.84;1799446;79;25701;-60
2021/08/26 11:11:06;;;;;;;5.35;4.83;;;;;;;17.35;82.92;99240.87;1799531;79;26438;-60
2021/08/26 11:13:34;;;;;;;5.53;4.37;;;;;;;17.28;82.63;99240.80;1786391;79;26535;-61
2021/08/26 11:16:27;;;;;;;5.25;4.37;;;;;;;17.28;82.57;99240.80;1797984;79;25668;-60
2021/08/26 11:18:58;;;;;;;4.97;4.28;;;;;;;17.23;81.98;99244.69;1734366;82;27308;-61
2021/08/26 11:21:48;;;;;;;6.53;4.55;;;;;;;17.13;81.62;99245.39;1730378;82;25992;-61
2021/08/26 11:24:22;;;;;;;5.85;3.90;;;;;;;17.06;81.87;99250.77;1728847;82;26447;-60
2021/08/26 11:26:53;;;;;;;4.28;3.80;;;;;;;16.98;81.72;99248.58;1705127;84;26556;-61
2021/08/26 11:29:28;;;;;;;5.10;4.28;;;;;;;16.94;82.30;99247.75;1705161;84;25772;-61
2021/08/26 11:32:00;;;;;;;4.97;4.22;;;;;;;17.01;82.53;99251.92;1704795;84;29475;-61
2021/08/26 11:34:39;;;;;;;8.88;4.25;;;;;;;17.04;82.83;99252.52;1704963;84;25776;-61
2021/08/26 11:37:14;;;;;;;4.55;3.92;;;;;;;17.10;81.99;99248.88;1705096;84;26119;-60